createdAt,value
2018-08-18T00:00:23.815Z,0.00
2018-08-18T00:02:16.584Z,0.00
2018-08-18T00:03:16.520Z,0.00
2018-08-18T00:05:09.310Z,0.00
2018-08-18T00:06:09.233Z,0.00
2018-08-18T00:08:02.013Z,0.00
2018-08-18T00:09:01.946Z,0.00
2018-08-18T00:10:54.707Z,0.00
2018-08-18T00:11:54.647Z,0.00
2018-08-18T00:13:47.430Z,0.00
2018-08-18T00:14:47.354Z,0.00
2018-08-18T00:16:40.123Z,0.00
2018-08-18T00:17:40.074Z,0.00
2018-08-18T00:19:32.876Z,0.00
2018-08-18T00:20:32.780Z,0.00
2018-08-18T00:22:25.543Z,0.00
2018-08-18T00:23:25.483Z,0.00
2018-08-18T00:25:18.263Z,0.00
2018-08-18T00:26:18.191Z,0.00
2018-08-18T00:28:10.990Z,0.00
2018-08-18T00:29:10.904Z,0.00
2018-08-18T00:31:03.676Z,0.00
2018-08-18T00:32:03.612Z,0.00
2018-08-18T00:33:56.385Z,0.00
2018-08-18T00:34:56.312Z,0.00
2018-08-18T00:36:49.091Z,0.00
2018-08-18T00:37:49.036Z,0.00
2018-08-18T00:39:41.814Z,0.00
2018-08-18T00:40:41.742Z,0.00
2018-08-18T00:42:34.535Z,0.00
2018-08-18T00:43:34.460Z,0.00
2018-08-18T00:45:27.243Z,0.00
2018-08-18T00:46:27.171Z,0.00
2018-08-18T00:48:19.951Z,0.00
2018-08-18T00:49:19.880Z,0.00
2018-08-18T00:51:12.663Z,0.00
2018-08-18T00:52:12.593Z,0.00
2018-08-18T00:54:05.374Z,0.00
2018-08-18T00:55:05.298Z,0.00
2018-08-18T00:56:58.066Z,0.00
2018-08-18T00:57:58.003Z,0.00
2018-08-18T00:59:50.791Z,0.00
2018-08-18T01:00:50.706Z,0.00
2018-08-18T01:02:43.494Z,0.00
2018-08-18T01:03:43.431Z,0.00
2018-08-18T01:05:36.221Z,0.00
2018-08-18T01:06:36.150Z,0.00
2018-08-18T01:08:28.911Z,0.00
2018-08-18T01:09:28.853Z,0.00
2018-08-18T01:11:21.724Z,0.00
2018-08-18T01:12:21.645Z,0.00
2018-08-18T01:14:14.530Z,0.00
2018-08-18T01:15:14.270Z,0.00
2018-08-18T01:17:07.045Z,0.00
2018-08-18T01:18:06.979Z,0.00
2018-08-18T01:19:59.764Z,0.00
2018-08-18T01:20:59.690Z,0.00
2018-08-18T01:22:52.476Z,0.00
2018-08-18T01:23:52.416Z,0.00
2018-08-18T01:25:45.194Z,0.00
2018-08-18T01:26:45.120Z,0.00
2018-08-18T01:28:37.903Z,0.00
2018-08-18T01:29:37.841Z,0.00
2018-08-18T01:31:30.634Z,0.00
2018-08-18T01:32:30.559Z,0.00
2018-08-18T01:34:23.339Z,0.00
2018-08-18T01:35:23.263Z,0.00
2018-08-18T01:37:16.039Z,0.00
2018-08-18T01:38:15.972Z,0.00
2018-08-18T01:40:08.783Z,0.00
2018-08-18T01:41:08.685Z,0.00
2018-08-18T01:43:01.464Z,0.00
2018-08-18T01:44:01.393Z,0.00
2018-08-18T01:45:54.173Z,0.00
2018-08-18T01:46:54.100Z,0.00
2018-08-18T01:48:46.872Z,0.00
2018-08-18T01:49:46.805Z,0.00
2018-08-18T01:51:39.596Z,0.00
2018-08-18T01:52:39.522Z,0.00
2018-08-18T01:54:32.313Z,0.00
2018-08-18T01:55:32.240Z,0.00
2018-08-18T01:57:25.061Z,0.00
2018-08-18T01:58:24.947Z,0.00
2018-08-18T02:00:17.739Z,0.00
2018-08-18T02:01:17.671Z,0.00
2018-08-18T02:03:10.447Z,0.00
2018-08-18T02:04:10.385Z,0.00
2018-08-18T02:06:03.188Z,0.00
2018-08-18T02:07:03.102Z,0.00
2018-08-18T02:08:55.862Z,0.00
2018-08-18T02:09:55.800Z,0.00
2018-08-18T02:11:48.583Z,0.00
2018-08-18T02:12:48.522Z,0.00
2018-08-18T02:14:41.286Z,0.00
2018-08-18T02:15:41.213Z,0.00
2018-08-18T02:17:34.144Z,0.00
2018-08-18T02:18:33.929Z,0.00
2018-08-18T02:20:26.743Z,0.00
2018-08-18T02:21:26.705Z,0.00
2018-08-18T02:23:19.445Z,0.00
2018-08-18T02:24:19.387Z,0.00
2018-08-18T02:26:12.175Z,0.00
2018-08-18T02:27:12.098Z,0.00
2018-08-18T02:29:04.867Z,0.00
2018-08-18T02:30:04.804Z,0.00
2018-08-18T02:31:57.578Z,0.00
2018-08-18T02:32:57.509Z,0.00
2018-08-18T02:34:50.313Z,0.00
2018-08-18T02:35:50.221Z,0.00
2018-08-18T02:37:43.043Z,0.00
2018-08-18T02:38:42.968Z,0.00
2018-08-18T02:40:35.819Z,0.00
2018-08-18T02:41:35.685Z,0.00
2018-08-18T02:43:28.462Z,0.00
2018-08-18T02:44:28.388Z,0.00
2018-08-18T02:46:21.170Z,0.00
2018-08-18T02:47:21.095Z,0.00
2018-08-18T02:49:13.873Z,0.00
2018-08-18T02:50:13.882Z,0.00
2018-08-18T02:52:06.592Z,0.00
2018-08-18T02:53:06.517Z,0.00
2018-08-18T02:54:59.313Z,0.00
2018-08-18T02:55:59.230Z,0.00
2018-08-18T02:57:52.004Z,0.00
2018-08-18T02:58:51.954Z,0.00
2018-08-18T03:00:44.724Z,0.00
2018-08-18T03:01:44.651Z,0.00
2018-08-18T03:03:37.428Z,0.00
2018-08-18T03:04:37.361Z,0.00
2018-08-18T03:06:30.154Z,0.00
2018-08-18T03:07:30.080Z,0.00
2018-08-18T03:09:22.853Z,0.00
2018-08-18T03:10:22.795Z,0.00
2018-08-18T03:12:15.575Z,0.00
2018-08-18T03:13:15.507Z,0.00
2018-08-18T03:15:08.284Z,0.00
2018-08-18T03:16:08.219Z,0.00
2018-08-18T03:18:01.013Z,0.00
2018-08-18T03:19:00.942Z,0.00
2018-08-18T03:20:53.754Z,0.00
2018-08-18T03:21:53.653Z,0.00
2018-08-18T03:23:46.424Z,0.00
2018-08-18T03:24:46.367Z,0.00
2018-08-18T03:26:39.145Z,0.00
2018-08-18T03:27:39.100Z,0.00
2018-08-18T03:29:31.876Z,4.00
2018-08-18T03:30:31.818Z,0.00
2018-08-18T03:32:24.590Z,4.00
2018-08-18T03:33:24.531Z,4.00
2018-08-18T03:35:17.300Z,4.00
2018-08-18T03:36:17.259Z,8.00
2018-08-18T03:38:10.022Z,4.00
2018-08-18T03:39:09.951Z,8.00
2018-08-18T03:41:02.739Z,8.00
2018-08-18T03:42:02.671Z,8.00
2018-08-18T03:43:55.463Z,8.00
2018-08-18T03:44:55.379Z,12.00
2018-08-18T03:46:48.178Z,8.00
2018-08-18T03:47:48.128Z,12.00
2018-08-18T03:49:40.857Z,12.00
2018-08-18T03:50:40.802Z,16.00
2018-08-18T03:52:33.654Z,16.00
2018-08-18T03:53:33.516Z,20.00
2018-08-18T03:55:26.315Z,24.00
2018-08-18T03:56:26.312Z,24.00
2018-08-18T03:58:19.031Z,32.00
2018-08-18T03:59:18.959Z,36.00
2018-08-18T04:01:11.796Z,44.00
2018-08-18T04:02:11.654Z,48.00
2018-08-18T04:04:04.435Z,56.00
2018-08-18T04:05:04.359Z,56.00
2018-08-18T04:06:57.175Z,64.00
2018-08-18T04:07:57.087Z,72.00
2018-08-18T04:09:49.862Z,80.00
2018-08-18T04:10:49.803Z,84.00
2018-08-18T04:12:42.592Z,84.00
2018-08-18T04:13:42.546Z,88.00
2018-08-18T04:15:35.275Z,92.00
2018-08-18T04:16:35.215Z,100.00
2018-08-18T04:18:27.986Z,108.00
2018-08-18T04:19:27.924Z,116.00
2018-08-18T04:21:20.671Z,132.00
2018-08-18T04:22:20.612Z,144.00
2018-08-18T04:24:13.393Z,160.00
2018-08-18T04:25:13.411Z,172.00
2018-08-18T04:27:06.145Z,180.00
2018-08-18T04:28:06.040Z,188.00
2018-08-18T04:29:58.830Z,200.00
2018-08-18T04:30:58.770Z,204.00
2018-08-18T04:32:51.554Z,224.00
2018-08-18T04:33:51.484Z,228.00
2018-08-18T04:35:44.288Z,244.00
2018-08-18T04:36:44.223Z,252.00
2018-08-18T04:38:36.995Z,260.00
2018-08-18T04:39:36.925Z,268.00
2018-08-18T04:41:29.721Z,288.00
2018-08-18T04:42:29.683Z,300.00
2018-08-18T04:44:22.429Z,316.00
2018-08-18T04:45:22.367Z,328.00
2018-08-18T04:47:15.138Z,360.00
2018-08-18T04:48:15.066Z,380.00
2018-08-18T04:50:07.888Z,440.00
2018-08-18T04:51:07.776Z,464.00
2018-08-18T04:53:00.549Z,504.00
2018-08-18T04:54:00.472Z,516.00
2018-08-18T04:55:53.259Z,536.00
2018-08-18T04:56:53.221Z,544.00
2018-08-18T04:58:45.990Z,568.00
2018-08-18T04:59:45.935Z,576.00
2018-08-18T05:01:38.683Z,612.00
2018-08-18T05:02:38.618Z,632.00
2018-08-18T05:04:31.428Z,688.00
2018-08-18T05:05:31.336Z,732.00
2018-08-18T05:07:24.112Z,808.00
2018-08-18T05:08:24.054Z,844.00
2018-08-18T05:10:16.824Z,912.00
2018-08-18T05:11:16.746Z,940.00
2018-08-18T05:13:09.566Z,984.00
2018-08-18T05:14:09.485Z,1012.00
2018-08-18T05:16:02.269Z,1056.00
2018-08-18T05:17:02.197Z,1072.00
2018-08-18T05:18:55.026Z,1108.00
2018-08-18T05:19:54.913Z,1124.00
2018-08-18T05:21:47.682Z,1168.00
2018-08-18T05:22:47.629Z,1200.00
2018-08-18T05:24:40.397Z,1268.00
2018-08-18T05:25:40.324Z,1300.00
2018-08-18T05:27:33.108Z,1324.00
2018-08-18T05:28:33.046Z,1344.00
2018-08-18T05:30:25.835Z,1412.00
2018-08-18T05:31:25.750Z,1432.00
2018-08-18T05:33:18.523Z,1472.00
2018-08-18T05:34:18.463Z,1524.00
2018-08-18T05:36:11.249Z,1544.00
2018-08-18T05:37:11.170Z,1484.00
2018-08-18T05:39:03.953Z,1456.00
2018-08-18T05:40:03.916Z,1460.00
2018-08-18T05:41:56.678Z,1576.00
2018-08-18T05:42:56.619Z,1604.00
2018-08-18T05:44:49.379Z,1636.00
2018-08-18T05:45:49.303Z,1588.00
2018-08-18T05:47:42.153Z,1864.00
2018-08-18T05:48:42.009Z,2288.00
2018-08-18T05:50:34.798Z,2580.00
2018-08-18T05:51:34.777Z,2952.00
2018-08-18T05:53:27.483Z,3212.00
2018-08-18T05:54:27.421Z,3324.00
2018-08-18T05:56:20.260Z,3616.00
2018-08-18T05:57:20.187Z,1968.00
2018-08-18T05:59:12.986Z,1660.00
2018-08-18T06:00:12.907Z,1876.00
2018-08-18T06:02:05.684Z,2672.00
2018-08-18T06:03:05.622Z,2840.00
2018-08-18T06:04:58.419Z,3980.00
2018-08-18T06:05:58.333Z,4008.00
2018-08-18T06:07:51.132Z,3572.00
2018-08-18T06:08:51.067Z,2880.00
2018-08-18T06:10:43.848Z,4376.00
2018-08-18T06:11:43.779Z,4432.00
2018-08-18T06:13:36.570Z,4576.00
2018-08-18T06:14:36.520Z,4520.00
2018-08-18T06:16:29.319Z,4644.00
2018-08-18T06:17:29.241Z,4652.00
2018-08-18T06:19:22.024Z,4704.00
2018-08-18T06:20:22.115Z,4508.00
2018-08-18T06:22:14.728Z,3828.00
2018-08-18T06:23:14.719Z,4524.00
2018-08-18T06:25:07.455Z,4768.00
2018-08-18T06:26:07.402Z,4648.00
2018-08-18T06:28:00.180Z,4588.00
2018-08-18T06:29:00.110Z,4720.00
2018-08-18T06:30:52.908Z,4600.00
2018-08-18T06:31:52.842Z,4696.00
2018-08-18T06:33:45.627Z,4512.00
2018-08-18T06:34:45.681Z,4592.00
2018-08-18T06:36:38.433Z,4692.00
2018-08-18T06:37:38.347Z,4704.00
2018-08-18T06:39:31.160Z,4648.00
2018-08-18T06:40:31.067Z,4472.00
2018-08-18T06:42:23.845Z,3908.00
2018-08-18T06:43:23.790Z,4316.00
2018-08-18T06:45:16.612Z,4864.00
2018-08-18T06:46:16.545Z,5268.00
2018-08-18T06:48:09.320Z,5180.00
2018-08-18T06:49:09.265Z,5600.00
2018-08-18T06:51:02.066Z,5612.00
2018-08-18T06:52:02.004Z,5552.00
2018-08-18T06:53:54.779Z,5336.00
2018-08-18T06:54:54.735Z,5200.00
2018-08-18T06:56:47.565Z,4724.00
2018-08-18T06:57:47.486Z,4896.00
2018-08-18T06:59:40.273Z,6096.00
2018-08-18T07:00:40.200Z,6636.00
2018-08-18T07:02:33.021Z,6752.00
2018-08-18T07:03:32.958Z,6868.00
2018-08-18T07:05:25.755Z,6656.00
2018-08-18T07:06:25.701Z,6356.00
2018-08-18T07:08:18.468Z,6276.00
2018-08-18T07:09:18.420Z,6068.00
2018-08-18T07:11:11.282Z,5984.00
2018-08-18T07:12:11.146Z,6120.00
2018-08-18T07:14:03.932Z,6016.00
2018-08-18T07:15:03.878Z,5892.00
2018-08-18T07:16:57.195Z,6328.00
2018-08-18T07:17:57.127Z,6272.00
2018-08-18T07:19:49.936Z,6900.00
2018-08-18T07:20:49.880Z,6888.00
2018-08-18T07:22:42.672Z,7320.00
2018-08-18T07:23:42.640Z,6632.00
2018-08-18T07:25:35.494Z,6564.00
2018-08-18T07:26:35.405Z,6220.00
2018-08-18T07:28:28.229Z,5296.00
2018-08-18T07:29:28.121Z,5564.00
2018-08-18T07:31:20.916Z,4936.00
2018-08-18T07:32:20.852Z,4844.00
2018-08-18T07:34:13.646Z,4976.00
2018-08-18T07:35:13.582Z,5656.00
2018-08-18T07:37:06.415Z,5720.00
2018-08-18T07:38:06.325Z,6580.00
2018-08-18T07:39:59.117Z,6080.00
2018-08-18T07:40:59.067Z,6040.00
2018-08-18T07:42:51.860Z,3844.00
2018-08-18T07:43:51.792Z,4204.00
2018-08-18T07:45:44.597Z,4956.00
2018-08-18T07:46:44.523Z,7008.00
2018-08-18T07:48:37.307Z,8060.00
2018-08-18T07:49:37.255Z,7488.00
2018-08-18T07:51:30.052Z,4636.00
2018-08-18T07:52:29.982Z,5116.00
2018-08-18T07:54:22.864Z,4632.00
2018-08-18T07:55:22.803Z,4792.00
2018-08-18T07:57:15.609Z,7352.00
2018-08-18T07:58:15.556Z,9944.00
2018-08-18T08:00:08.387Z,12004.00
2018-08-18T08:01:08.313Z,12940.00
2018-08-18T08:03:01.112Z,16032.00
2018-08-18T08:04:01.094Z,22016.00
2018-08-18T08:05:53.850Z,14656.00
2018-08-18T08:06:53.782Z,7496.00
2018-08-18T08:08:46.595Z,3560.00
2018-08-18T08:09:46.578Z,3544.00
2018-08-18T08:11:39.422Z,4472.00
2018-08-18T08:12:39.474Z,7672.00
2018-08-18T08:14:32.064Z,5924.00
2018-08-18T08:15:32.007Z,5280.00
2018-08-18T08:17:24.918Z,3764.00
2018-08-18T08:18:24.879Z,3008.00
2018-08-18T08:20:17.637Z,2544.00
2018-08-18T08:21:17.581Z,2288.00
2018-08-18T08:23:10.386Z,2048.00
2018-08-18T08:24:10.309Z,1920.00
2018-08-18T08:26:03.110Z,1716.00
2018-08-18T08:27:03.062Z,1728.00
2018-08-18T08:28:55.838Z,3012.00
2018-08-18T08:29:55.787Z,3516.00
2018-08-18T08:31:48.562Z,4644.00
2018-08-18T08:32:48.496Z,5220.00
2018-08-18T08:34:41.289Z,10312.00
2018-08-18T08:35:41.224Z,5240.00
2018-08-18T08:37:34.010Z,8388.00
2018-08-18T08:38:33.947Z,10252.00
2018-08-18T08:40:26.728Z,18208.00
2018-08-18T08:41:26.682Z,24128.00
2018-08-18T08:43:19.557Z,4984.00
2018-08-18T08:44:19.401Z,8608.00
2018-08-18T08:46:12.261Z,6868.00
2018-08-18T08:47:12.133Z,11820.00
2018-08-18T08:49:04.994Z,27328.00
2018-08-18T08:50:04.856Z,27552.00
2018-08-18T08:51:57.653Z,33216.00
2018-08-18T08:52:57.608Z,31200.00
2018-08-18T08:54:50.397Z,33664.00
2018-08-18T08:55:50.341Z,29184.00
2018-08-18T08:57:43.147Z,28256.00
2018-08-18T08:58:43.107Z,32224.00
2018-08-18T09:00:35.897Z,24160.00
2018-08-18T09:01:35.822Z,25152.00
2018-08-18T09:03:28.648Z,15936.00
2018-08-18T09:04:28.557Z,19424.00
2018-08-18T09:06:21.359Z,28864.00
2018-08-18T09:07:21.298Z,24640.00
2018-08-18T09:09:14.093Z,21280.00
2018-08-18T09:10:14.035Z,18624.00
2018-08-18T09:12:06.831Z,17568.00
2018-08-18T09:13:06.764Z,16192.00
2018-08-18T09:14:59.553Z,7512.00
2018-08-18T09:15:59.503Z,17408.00
2018-08-18T09:17:52.302Z,10512.00
2018-08-18T09:18:52.241Z,9804.00
2018-08-18T09:20:45.021Z,6304.00
2018-08-18T09:21:44.976Z,5928.00
2018-08-18T09:23:37.770Z,5748.00
2018-08-18T09:24:37.698Z,5252.00
2018-08-18T09:26:30.580Z,5332.00
2018-08-18T09:27:30.448Z,5596.00
2018-08-18T09:29:23.268Z,5272.00
2018-08-18T09:30:23.184Z,4612.00
2018-08-18T09:32:16.054Z,4224.00
2018-08-18T09:33:15.991Z,4228.00
2018-08-18T09:35:08.838Z,4420.00
2018-08-18T09:36:08.800Z,4336.00
2018-08-18T09:38:01.581Z,4272.00
2018-08-18T09:39:01.519Z,4084.00
2018-08-18T09:40:54.302Z,4528.00
2018-08-18T09:41:54.251Z,5084.00
2018-08-18T09:43:47.048Z,7788.00
2018-08-18T09:44:46.973Z,10124.00
2018-08-18T09:46:39.771Z,9356.00
2018-08-18T09:47:39.702Z,10128.00
2018-08-18T09:49:32.489Z,6576.00
2018-08-18T09:50:32.443Z,6468.00
2018-08-18T09:52:25.229Z,7192.00
2018-08-18T09:53:25.152Z,7892.00
2018-08-18T09:55:17.955Z,7152.00
2018-08-18T09:56:17.895Z,6276.00
2018-08-18T09:58:10.700Z,6844.00
2018-08-18T09:59:10.652Z,6848.00
2018-08-18T10:01:03.425Z,4912.00
2018-08-18T10:02:03.371Z,4892.00
2018-08-18T10:03:56.187Z,4156.00
2018-08-18T10:04:56.099Z,3980.00
2018-08-18T10:06:48.917Z,3824.00
2018-08-18T10:07:48.881Z,3792.00
2018-08-18T10:09:41.637Z,4200.00
2018-08-18T10:10:41.581Z,4808.00
2018-08-18T10:12:34.422Z,3816.00
2018-08-18T10:13:34.328Z,3948.00
2018-08-18T10:15:27.212Z,4052.00
2018-08-18T10:16:27.053Z,4060.00
2018-08-18T10:18:19.847Z,6180.00
2018-08-18T10:19:19.778Z,7992.00
2018-08-18T10:21:12.567Z,4692.00
2018-08-18T10:22:12.524Z,5128.00
2018-08-18T10:24:05.316Z,4636.00
2018-08-18T10:25:05.251Z,4712.00
2018-08-18T10:26:58.046Z,5128.00
2018-08-18T10:27:57.997Z,5840.00
2018-08-18T10:29:50.815Z,5776.00
2018-08-18T10:30:50.731Z,5248.00
2018-08-18T10:32:43.519Z,5208.00
2018-08-18T10:33:43.450Z,5160.00
2018-08-18T10:35:36.243Z,7232.00
2018-08-18T10:36:36.176Z,6384.00
2018-08-18T10:38:28.975Z,6368.00
2018-08-18T10:39:28.919Z,6756.00
2018-08-18T10:41:21.845Z,7656.00
2018-08-18T10:42:21.786Z,6948.00
2018-08-18T10:44:14.617Z,6848.00
2018-08-18T10:45:14.526Z,6264.00
2018-08-18T10:47:07.331Z,6908.00
2018-08-18T10:48:07.277Z,7700.00
2018-08-18T10:50:00.073Z,7488.00
2018-08-18T10:51:00.004Z,7208.00
2018-08-18T10:52:52.826Z,7652.00
2018-08-18T10:53:52.786Z,6936.00
2018-08-18T10:55:45.518Z,7324.00
2018-08-18T10:56:45.492Z,7396.00
2018-08-18T10:58:38.345Z,6616.00
2018-08-18T10:59:38.198Z,6152.00
2018-08-18T11:01:30.988Z,5364.00
2018-08-18T11:02:30.924Z,5340.00
2018-08-18T11:04:23.735Z,4856.00
2018-08-18T11:05:23.665Z,4380.00
2018-08-18T11:07:16.473Z,4016.00
2018-08-18T11:08:16.533Z,4300.00
2018-08-18T11:10:09.261Z,4416.00
2018-08-18T11:11:09.149Z,4636.00
2018-08-18T11:13:01.962Z,4660.00
2018-08-18T11:14:01.875Z,4636.00
2018-08-18T11:15:54.758Z,4600.00
2018-08-18T11:16:54.683Z,4848.00
2018-08-18T11:18:47.487Z,4788.00
2018-08-18T11:19:47.416Z,4500.00
2018-08-18T11:21:40.208Z,4184.00
2018-08-18T11:22:40.162Z,3908.00
2018-08-18T11:24:32.945Z,4188.00
2018-08-18T11:25:32.885Z,4268.00
2018-08-18T11:27:25.735Z,8400.00
2018-08-18T11:28:25.695Z,22688.00
2018-08-18T11:30:18.416Z,22752.00
2018-08-18T11:31:18.342Z,5968.00
2018-08-18T11:33:11.178Z,3224.00
2018-08-18T11:34:11.099Z,3140.00
2018-08-18T11:36:03.907Z,2848.00
2018-08-18T11:37:03.849Z,2804.00
2018-08-18T11:38:56.646Z,2736.00
2018-08-18T11:39:56.580Z,2696.00
2018-08-18T11:41:49.354Z,2648.00
2018-08-18T11:42:49.313Z,2640.00
2018-08-18T11:44:42.255Z,2580.00
2018-08-18T11:45:42.029Z,2504.00
2018-08-18T11:47:34.817Z,2504.00
2018-08-18T11:48:34.764Z,2440.00
2018-08-18T11:50:27.558Z,2396.00
2018-08-18T11:51:27.493Z,2348.00
2018-08-18T11:53:20.294Z,2048.00
2018-08-18T11:54:20.227Z,2008.00
2018-08-18T11:56:13.023Z,2088.00
2018-08-18T11:57:12.960Z,2176.00
2018-08-18T11:59:05.765Z,2408.00
2018-08-18T12:00:05.700Z,2488.00
2018-08-18T12:01:58.542Z,2352.00
2018-08-18T12:02:58.408Z,2332.00
2018-08-18T12:04:51.267Z,2352.00
2018-08-18T12:05:51.198Z,2404.00
2018-08-18T12:07:44.071Z,2444.00
2018-08-18T12:08:44.012Z,2448.00
2018-08-18T12:10:36.844Z,2328.00
2018-08-18T12:11:36.749Z,2252.00
2018-08-18T12:13:29.617Z,2184.00
2018-08-18T12:14:29.492Z,2192.00
2018-08-18T12:16:22.259Z,1916.00
2018-08-18T12:17:22.199Z,1628.00
2018-08-18T12:19:14.991Z,1244.00
2018-08-18T12:20:14.925Z,1256.00
2018-08-18T12:22:07.720Z,1288.00
2018-08-18T12:23:07.667Z,1256.00
2018-08-18T12:25:00.461Z,1264.00
2018-08-18T12:26:00.389Z,1364.00
2018-08-18T12:27:53.172Z,1516.00
2018-08-18T12:28:53.179Z,1388.00
2018-08-18T12:30:45.920Z,1216.00
2018-08-18T12:31:45.854Z,1432.00
2018-08-18T12:33:38.638Z,1512.00
2018-08-18T12:34:38.684Z,1660.00
2018-08-18T12:36:31.571Z,1716.00
2018-08-18T12:37:31.522Z,1580.00
2018-08-18T12:39:24.272Z,1412.00
2018-08-18T12:40:24.395Z,1376.00
2018-08-18T12:42:17.161Z,1348.00
2018-08-18T12:43:17.048Z,1348.00
2018-08-18T12:45:09.932Z,1336.00
2018-08-18T12:46:09.783Z,1356.00
2018-08-18T12:48:02.585Z,1364.00
2018-08-18T12:49:02.526Z,1412.00
2018-08-18T12:50:55.332Z,1600.00
2018-08-18T12:51:55.262Z,1672.00
2018-08-18T12:53:48.085Z,1608.00
2018-08-18T12:54:48.014Z,1604.00
2018-08-18T12:56:40.832Z,1504.00
2018-08-18T12:57:40.742Z,1452.00
2018-08-18T12:59:33.532Z,1356.00
2018-08-18T13:00:33.486Z,1356.00
2018-08-18T13:02:26.264Z,1340.00
2018-08-18T13:03:26.204Z,1328.00
2018-08-18T13:05:19.011Z,1328.00
2018-08-18T13:06:18.916Z,1332.00
2018-08-18T13:08:11.694Z,1324.00
2018-08-18T13:09:11.632Z,1340.00
2018-08-18T13:11:04.464Z,1408.00
2018-08-18T13:12:04.384Z,1420.00
2018-08-18T13:13:57.226Z,1480.00
2018-08-18T13:14:57.148Z,1504.00
2018-08-18T13:16:50.003Z,1408.00
2018-08-18T13:17:49.933Z,1472.00
2018-08-18T13:19:42.759Z,1428.00
2018-08-18T13:20:42.717Z,1448.00
2018-08-18T13:22:35.515Z,1348.00
2018-08-18T13:23:35.433Z,1140.00
2018-08-18T13:25:28.231Z,1000.00
2018-08-18T13:26:28.219Z,996.00
2018-08-18T13:28:21.006Z,976.00
2018-08-18T13:29:20.883Z,1024.00
2018-08-18T13:31:13.685Z,1300.00
2018-08-18T13:32:13.619Z,1420.00
2018-08-18T13:34:06.456Z,1576.00
2018-08-18T13:35:06.382Z,1600.00
2018-08-18T13:36:59.179Z,1652.00
2018-08-18T13:37:59.104Z,1616.00
2018-08-18T13:39:51.899Z,1380.00
2018-08-18T13:40:51.842Z,1316.00
2018-08-18T13:42:44.692Z,1300.00
2018-08-18T13:43:44.612Z,1268.00
2018-08-18T13:45:37.420Z,1284.00
2018-08-18T13:46:37.379Z,1300.00
2018-08-18T13:48:30.152Z,1268.00
2018-08-18T13:49:30.134Z,1276.00
2018-08-18T13:51:22.922Z,1468.00
2018-08-18T13:52:22.844Z,1540.00
2018-08-18T13:54:15.641Z,1544.00
2018-08-18T13:55:15.594Z,1520.00
2018-08-18T13:57:08.487Z,1536.00
2018-08-18T13:58:08.411Z,1580.00
2018-08-18T14:00:01.329Z,1788.00
2018-08-18T14:01:01.160Z,1604.00
2018-08-18T14:02:53.960Z,1368.00
2018-08-18T14:03:53.885Z,1236.00
2018-08-18T14:05:46.683Z,1084.00
2018-08-18T14:06:46.612Z,1004.00
2018-08-18T14:08:39.407Z,932.00
2018-08-18T14:09:39.338Z,888.00
2018-08-18T14:11:32.136Z,880.00
2018-08-18T14:12:32.099Z,884.00
2018-08-18T14:14:24.862Z,952.00
2018-08-18T14:15:24.798Z,1040.00
2018-08-18T14:17:17.673Z,1124.00
2018-08-18T14:18:17.603Z,1228.00
2018-08-18T14:20:10.381Z,1412.00
2018-08-18T14:21:10.322Z,1260.00
2018-08-18T14:23:03.143Z,1184.00
2018-08-18T14:24:03.068Z,1372.00
2018-08-18T14:25:55.877Z,1180.00
2018-08-18T14:26:55.820Z,1300.00
2018-08-18T14:28:48.620Z,940.00
2018-08-18T14:29:48.531Z,1204.00
2018-08-18T14:31:41.335Z,1076.00
2018-08-18T14:32:41.262Z,1128.00
2018-08-18T14:34:34.097Z,940.00
2018-08-18T14:35:34.040Z,940.00
2018-08-18T14:37:26.923Z,944.00
2018-08-18T14:38:26.828Z,980.00
2018-08-18T14:40:19.612Z,1076.00
2018-08-18T14:41:19.553Z,1060.00
2018-08-18T14:43:12.359Z,1340.00
2018-08-18T14:44:12.323Z,1344.00
2018-08-18T14:46:05.080Z,1212.00
2018-08-18T14:47:05.020Z,996.00
2018-08-18T14:48:57.895Z,772.00
2018-08-18T14:49:57.825Z,808.00
2018-08-18T14:51:50.669Z,1060.00
2018-08-18T14:52:50.585Z,1060.00
2018-08-18T14:54:43.400Z,1028.00
2018-08-18T14:55:43.332Z,864.00
2018-08-18T14:57:36.169Z,932.00
2018-08-18T14:58:36.110Z,948.00
2018-08-18T15:00:28.980Z,904.00
2018-08-18T15:01:29.195Z,968.00
2018-08-18T15:03:21.671Z,1040.00
2018-08-18T15:04:21.658Z,1104.00
2018-08-18T15:06:14.411Z,1148.00
2018-08-18T15:07:14.317Z,1096.00
2018-08-18T15:09:07.151Z,1020.00
2018-08-18T15:10:07.048Z,976.00
2018-08-18T15:11:59.875Z,936.00
2018-08-18T15:12:59.791Z,896.00
2018-08-18T15:14:52.592Z,948.00
2018-08-18T15:15:52.519Z,864.00
2018-08-18T15:17:45.324Z,820.00
2018-08-18T15:18:45.243Z,800.00
2018-08-18T15:20:38.032Z,752.00
2018-08-18T15:21:37.979Z,780.00
2018-08-18T15:23:30.755Z,828.00
2018-08-18T15:24:30.689Z,776.00
2018-08-18T15:26:23.508Z,556.00
2018-08-18T15:27:23.443Z,604.00
2018-08-18T15:29:16.248Z,576.00
2018-08-18T15:30:16.181Z,520.00
2018-08-18T15:32:08.984Z,744.00
2018-08-18T15:33:08.911Z,660.00
2018-08-18T15:35:01.698Z,544.00
2018-08-18T15:36:01.641Z,524.00
2018-08-18T15:37:54.459Z,708.00
2018-08-18T15:38:54.402Z,720.00
2018-08-18T15:40:47.156Z,704.00
2018-08-18T15:41:47.086Z,668.00
2018-08-18T15:43:39.920Z,680.00
2018-08-18T15:44:39.815Z,660.00
2018-08-18T15:46:32.627Z,700.00
2018-08-18T15:47:32.571Z,700.00
2018-08-18T15:49:25.386Z,716.00
2018-08-18T15:50:25.317Z,716.00
2018-08-18T15:52:18.316Z,668.00
2018-08-18T15:53:18.109Z,672.00
2018-08-18T15:55:10.881Z,696.00
2018-08-18T15:56:10.811Z,708.00
2018-08-18T15:58:03.601Z,720.00
2018-08-18T15:59:03.531Z,728.00
2018-08-18T16:00:56.383Z,732.00
2018-08-18T16:01:56.253Z,708.00
2018-08-18T16:03:49.065Z,688.00
2018-08-18T16:04:48.983Z,676.00
2018-08-18T16:06:41.790Z,636.00
2018-08-18T16:07:41.740Z,652.00
2018-08-18T16:09:34.518Z,640.00
2018-08-18T16:10:34.460Z,640.00
2018-08-18T16:12:27.230Z,652.00
2018-08-18T16:13:27.164Z,608.00
2018-08-18T16:15:19.972Z,616.00
2018-08-18T16:16:19.879Z,636.00
2018-08-18T16:18:12.677Z,644.00
2018-08-18T16:19:12.646Z,656.00
2018-08-18T16:21:05.409Z,696.00
2018-08-18T16:22:05.351Z,756.00
2018-08-18T16:23:58.141Z,860.00
2018-08-18T16:24:58.067Z,888.00
2018-08-18T16:26:50.865Z,788.00
2018-08-18T16:27:50.789Z,716.00
2018-08-18T16:29:43.588Z,620.00
2018-08-18T16:30:43.516Z,612.00
2018-08-18T16:32:36.335Z,604.00
2018-08-18T16:33:36.246Z,600.00
2018-08-18T16:35:29.048Z,576.00
2018-08-18T16:36:28.980Z,580.00
2018-08-18T16:38:21.782Z,572.00
2018-08-18T16:39:21.697Z,564.00
2018-08-18T16:41:14.483Z,560.00
2018-08-18T16:42:14.422Z,560.00
2018-08-18T16:44:07.263Z,548.00
2018-08-18T16:45:07.194Z,536.00
2018-08-18T16:47:00.040Z,500.00
2018-08-18T16:47:59.966Z,488.00
2018-08-18T16:49:52.801Z,492.00
2018-08-18T16:50:52.728Z,476.00
2018-08-18T16:52:45.499Z,456.00
2018-08-18T16:53:45.514Z,452.00
2018-08-18T16:55:38.263Z,436.00
2018-08-18T16:56:38.166Z,424.00
2018-08-18T16:58:30.969Z,420.00
2018-08-18T16:59:30.902Z,420.00
2018-08-18T17:01:23.663Z,400.00
2018-08-18T17:02:23.616Z,392.00
2018-08-18T17:04:16.415Z,388.00
2018-08-18T17:05:16.345Z,384.00
2018-08-18T17:07:09.125Z,368.00
2018-08-18T17:08:09.056Z,360.00
2018-08-18T17:10:01.873Z,340.00
2018-08-18T17:11:01.789Z,332.00
2018-08-18T17:12:54.652Z,320.00
2018-08-18T17:13:54.511Z,320.00
2018-08-18T17:15:47.335Z,304.00
2018-08-18T17:16:47.260Z,292.00
2018-08-18T17:18:40.056Z,268.00
2018-08-18T17:19:39.980Z,260.00
2018-08-18T17:21:32.765Z,260.00
2018-08-18T17:22:32.698Z,260.00
2018-08-18T17:24:25.529Z,256.00
2018-08-18T17:25:25.422Z,260.00
2018-08-18T17:27:18.241Z,252.00
2018-08-18T17:28:18.188Z,252.00
2018-08-18T17:30:11.080Z,248.00
2018-08-18T17:31:10.914Z,244.00
2018-08-18T17:33:03.703Z,228.00
2018-08-18T17:34:03.637Z,224.00
2018-08-18T17:35:56.487Z,212.00
2018-08-18T17:36:56.390Z,204.00
2018-08-18T17:38:49.205Z,196.00
2018-08-18T17:39:49.137Z,192.00
2018-08-18T17:41:41.918Z,184.00
2018-08-18T17:42:41.858Z,180.00
2018-08-18T17:44:34.644Z,172.00
2018-08-18T17:45:34.582Z,164.00
2018-08-18T17:47:27.350Z,152.00
2018-08-18T17:48:27.292Z,148.00
2018-08-18T17:50:20.100Z,140.00
2018-08-18T17:51:20.024Z,128.00
2018-08-18T17:53:12.805Z,120.00